Data for 10/03/2005

Time Sea-Level Adjusted Pressure Absolute Pressure Temperature Relative Humidity Dew Point   
(mb) (inHg) (mb) (inHg) (C) (F) (%) (C) (F)
00:05 1013 29.91 843 24.89 6.6 43.9 65 0.5 32.9
00:10 1013 29.91 843 24.89 6.6 43.9 66 0.7 33.3
00:15 1013 29.91 843 24.89 6.5 43.8 67 0.9 33.6
00:20 1013 29.91 843 24.89 6.4 43.6 67 0.9 33.6
00:25 1013 29.91 842 24.86 6.4 43.4 68 0.9 33.6
00:30 1013 29.91 843 24.89 6.3 43.4 68 0.8 33.4
00:35 1013 29.91 843 24.89 6.3 43.3 67 0.7 33.2
00:40 1013 29.91 843 24.89 6.3 43.3 68 0.8 33.4
00:45 1013 29.91 842 24.86 6.3 43.3 67 0.7 33.2
00:50 1013 29.91 843 24.89 6.3 43.3 67 0.7 33.2
00:55 1013 29.91 843 24.89 6.2 43.2 67 0.6 33
01:00 1013 29.91 842 24.86 6.3 43.4 66 0.6 33
01:05 1013 29.91 842 24.86 6.3 43.4 67 0.6 33.1
01:10 1013 29.91 842 24.86 6.3 43.3 68 0.7 33.3
01:15 1013 29.91 842 24.86 6.1 43.1 68 0.8 33.4
01:20 1013 29.91 842 24.86 6.1 43.1 69 0.9 33.6
01:25 1013 29.91 842 24.86 6 42.9 69 0.9 33.6
01:30 1013 29.91 842 24.86 6 42.7 72 1.3 34.3
01:35 1013 29.91 843 24.89 5.9 42.6 72 1.3 34.4
01:40 1013 29.91 842 24.86 5.9 42.6 73 1.4 34.4
01:45 1013 29.91 842 24.86 5.8 42.5 75 1.7 35.1
01:50 1013 29.91 842 24.86 5.7 42.2 76 1.8 35.3
01:55 1013 29.91 843 24.89 5.5 41.9 76 1.7 35
02:00 1013 29.91 843 24.89 5.5 41.9 78 2 35.6
02:05 1013 29.91 843 24.89 5.3 41.5 79 2 35.6
02:10 1014 29.94 843 24.89 5 41 82 2.1 35.9
02:15 1014 29.94 843 24.89 4.8 40.6 84 2.3 36.1
02:20 1014 29.94 843 24.89 4.6 40.2 85 2.3 36.2
02:25 1014 29.94 843 24.89 4.4 39.9 86 2.2 36
02:30 1014 29.94 843 24.89 4.3 39.7 87 2.4 36.2
02:35 1014 29.94 843 24.89 4.1 39.4 89 2.5 36.4
02:40 1014 29.94 843 24.89 4 39.2 90 2.4 36.4
02:45 1014 29.94 843 24.89 3.9 39 90 2.4 36.2
02:50 1014 29.94 843 24.89 3.8 38.8 90 2.3 36.1
02:55 1014 29.94 843 24.89 3.7 38.6 92 2.5 36.5
03:00 1014 29.94 843 24.89 3.6 38.4 92 2.3 36.1
03:05 1014 29.94 843 24.89 3.4 38.2 93 2.4 36.2
03:10 1014 29.94 843 24.89 3.3 37.9 93 2.2 36
03:15 1014 29.94 843 24.89 3.2 37.7 92 2.1 35.7
03:20 1014 29.94 843 24.89 3.1 37.7 92 1.9 35.5
03:25 1014 29.94 843 24.89 3.1 37.6 93 2 35.6
03:30 1014 29.94 843 24.89 3 37.4 92 1.9 35.4
03:35 1013 29.91 843 24.89 2.9 37.2 92 1.6 35
03:40 1014 29.94 843 24.89 2.8 37 91 1.5 34.7
03:45 1013 29.91 843 24.89 2.7 36.9 92 1.5 34.7
03:50 1013 29.91 843 24.89 2.6 36.7 93 1.5 34.7
03:55 1013 29.91 842 24.86 2.5 36.4 93 1.4 34.6
04:00 1013 29.91 843 24.89 2.5 36.5 92 1.3 34.4
04:05 1013 29.91 843 24.89 2.5 36.5 92 1.3 34.4
04:10 1013 29.91 843 24.89 2.4 36.3 92 1.2 34.2
04:15 1013 29.91 843 24.89 2.3 36.2 93 1.3 34.4
04:20 1013 29.91 843 24.89 2.3 36.1 93 1.3 34.3
04:25 1013 29.91 843 24.89 2.3 36.1 92 1.1 34.1
04:30 1013 29.91 842 24.86 2.3 36.2 93 1.3 34.3
04:35 1013 29.91 842 24.86 2.3 36.2 92 1.1 34
04:40 1013 29.91 842 24.86 2.3 36.2 93 1.3 34.3
04:45 1013 29.91 842 24.86 2.4 36.2 92 1.3 34.3
04:50 1013 29.91 842 24.86 2.2 36 93 1.2 34.1
04:55 1013 29.91 842 24.86 2.2 36 92 1.1 33.9
05:00 1013 29.91 842 24.86 2.2 36 93 1.1 34
05:05 1013 29.91 842 24.86 2.1 35.9 93 1.1 34
05:10 1013 29.91 842 24.86 2.2 35.9 93 1.2 34.1
05:15 1013 29.91 842 24.86 2.2 35.9 92 1.1 33.9
05:20 1013 29.91 842 24.86 2.1 35.8 93 1.1 34
05:25 1013 29.91 842 24.86 2.1 35.8 94 1.2 34.1
05:30 1013 29.91 842 24.86 2.1 35.9 93 1.1 34
05:35 1013 29.91 842 24.86 2.1 35.9 94 1.3 34.3
05:40 1013 29.91 842 24.86 2.2 36 92 1.1 34
05:45 1013 29.91 842 24.86 2.3 36.1 92 1.2 34.1
05:50 1013 29.91 842 24.86 2.3 36.2 92 1.2 34.1
05:55 1013 29.91 842 24.86 2.3 36.2 92 1.2 34.2
06:00 1013 29.91 842 24.86 2.3 36.2 92 1.1 34
06:05 1013 29.91 842 24.86 2.3 36.1 92 1.2 34.1
06:10 1013 29.91 842 24.86 2.3 36.1 91 1 33.8
06:15 1013 29.91 842 24.86 2.3 36.1 92 1.1 33.9
06:20 1013 29.91 842 24.86 2.2 36 92 1.1 34
06:25 1013 29.91 842 24.86 2.2 35.9 92 1 33.9
06:30 1013 29.91 842 24.86 2.2 36 92 1.1 33.9
06:35 1013 29.91 842 24.86 2.1 35.8 92 1 33.8
06:40 1013 29.91 842 24.86 2.2 35.9 92 1 33.7
06:45 1013 29.91 842 24.86 2.2 35.9 91 0.9 33.6
06:50 1013 29.91 842 24.86 2.1 35.7 92 0.9 33.6
06:55 1013 29.91 843 24.89 2.1 35.7 93 1 33.8
07:00 1013 29.91 843 24.89 2 35.7 92 0.9 33.5
07:05 1013 29.91 842 24.86 2 35.7 91 0.8 33.4
07:10 1013 29.91 842 24.86 2 35.7 92 0.8 33.5
07:15 1013 29.91 842 24.86 2.1 35.7 91 0.8 33.4
07:20 1013 29.91 842 24.86 2 35.6 92 0.8 33.4
07:25 1013 29.91 842 24.86 2 35.6 91 0.7 33.3
07:30 1013 29.91 843 24.89 2.1 35.8 91 0.8 33.4
07:35 1013 29.91 842 24.86 2 35.6 91 0.8 33.4
07:40 1014 29.94 843 24.89 2 35.6 92 0.8 33.4
07:45 1013 29.91 842 24.86 2 35.6 91 0.7 33.2
07:50 1013 29.91 842 24.86 2 35.5 90 0.5 32.9
07:55 1013 29.91 843 24.89 1.9 35.5 91 0.7 33.2
08:00 1013 29.91 843 24.89 1.8 35.3 92 0.7 33.3
08:05 1014 29.94 843 24.89 1.7 35 93 0.6 33.1
08:10 1014 29.94 843 24.89 1.7 35 93 0.7 33.2
08:15 1014 29.94 843 24.89 1.6 34.9 93 0.7 33.2
08:20 1014 29.94 843 24.89 1.5 34.7 95 0.7 33.3
08:25 1014 29.94 843 24.89 1.4 34.5 95 0.6 33.1
08:30 1014 29.94 843 24.89 1.4 34.5 95 0.6 33.1
08:35 1014 29.94 843 24.89 1.2 34.2 95 0.5 33
08:40 1014 29.94 843 24.89 1.2 34.1 95 0.5 32.9
08:45 1014 29.94 843 24.89 1.3 34.3 95 0.5 32.9
08:50 1014 29.94 843 24.89 1.2 34.2 94 0.4 32.8
08:55 1014 29.94 843 24.89 1.3 34.4 94 0.5 32.8
09:00 1014 29.94 843 24.89 1.3 34.4 94 0.4 32.7
09:05 1014 29.94 843 24.89 1.4 34.5 93 0.4 32.7
09:10 1014 29.94 843 24.89 1.5 34.7 92 0.4 32.6
09:15 1013 29.91 843 24.89 1.5 34.7 92 0.4 32.6
09:20 1014 29.94 843 24.89 1.5 34.6 92 0.4 32.6
09:25 1014 29.94 843 24.89 1.5 34.7 93 0.4 32.7
09:30 1014 29.94 843 24.89 1.5 34.7 92 0.4 32.7
09:35 1014 29.94 843 24.89 1.5 34.7 91 0.3 32.5
09:40 1014 29.94 843 24.89 1.6 34.9 92 0.4 32.7
09:45 1014 29.94 843 24.89 1.6 34.9 91 0.4 32.7
09:50 1014 29.94 843 24.89 1.7 35 92 0.4 32.8
09:55 1014 29.94 843 24.89 1.7 35 91 0.4 32.8
10:00 1014 29.94 843 24.89 1.8 35.2 92 0.6 33.1
10:05 1014 29.94 843 24.89 1.7 35.1 91 0.4 32.8
10:10 1014 29.94 844 24.92 1.8 35.2 91 0.4 32.8
10:15 1014 29.94 844 24.92 1.9 35.3 91 0.5 32.9
10:20 1014 29.94 844 24.92 1.9 35.4 91 0.6 33.1
10:25 1014 29.94 844 24.92 1.9 35.4 90 0.4 32.7
10:30 1014 29.94 843 24.89 1.9 35.4 91 0.5 33
10:35 1014 29.94 843 24.89 2 35.6 90 0.5 32.9
10:40 1014 29.94 843 24.89 2 35.6 91 0.6 33.1
10:45 1014 29.94 843 24.89 2 35.6 90 0.5 32.9
10:50 1014 29.94 843 24.89 2 35.7 90 0.6 33.1
10:55 1014 29.94 844 24.92 2.1 35.8 91 0.7 33.3
11:00 1014 29.94 843 24.89 2.2 35.9 90 0.7 33.3
11:05 1014 29.94 843 24.89 2.3 36.1 90 0.8 33.4
11:10 1014 29.94 844 24.92 2.4 36.4 91 1 33.9
11:15 1014 29.94 844 24.92 2.4 36.4 89 0.8 33.5
11:20 1014 29.94 844 24.92 2.4 36.3 89 0.8 33.4
11:25 1014 29.94 843 24.89 2.5 36.6 89 0.8 33.5
11:30 1014 29.94 843 24.89 2.6 36.6 89 0.9 33.6
11:35 1014 29.94 844 24.92 2.6 36.7 88 0.8 33.5
11:40 1014 29.94 844 24.92 2.7 36.8 88 0.9 33.7
11:45 1014 29.94 844 24.92 2.8 37 88 0.9 33.7
11:50 1014 29.94 844 24.92 2.9 37.2 89 1.2 34.1
11:55 1014 29.94 843 24.89 3 37.4 86 0.9 33.7
12:00 1014 29.94 844 24.92 3.1 37.5 85 0.7 33.3
12:05 1015 29.97 844 24.92 3 37.3 87 1 33.8
12:10 1015 29.97 844 24.92 3 37.3 88 1.2 34.1
12:15 1015 29.97 844 24.92 3.1 37.7 86 1.1 33.9
12:20 1015 29.97 844 24.92 3.1 37.6 88 1.3 34.3
12:25 1015 29.97 844 24.92 3 37.4 88 1.2 34.2
12:30 1015 29.97 844 24.92 3.1 37.5 87 1.1 34.1
12:35 1015 29.97 844 24.92 3 37.5 88 1.2 34.2
12:40 1015 29.97 844 24.92 3 37.5 87 1.1 34.1
12:45 1015 29.97 844 24.92 3 37.4 88 1.2 34.1
12:50 1015 29.97 844 24.92 3.1 37.6 88 1.4 34.5
12:55 1015 29.97 844 24.92 3.2 37.8 88 1.5 34.6
13:00 1015 29.97 844 24.92 3.4 38 87 1.3 34.4
13:05 1015 29.97 844 24.92 3.3 38 86 1.2 34.2
13:10 1015 29.97 844 24.92 3.5 38.2 89 1.9 35.4
13:15 1015 29.97 844 24.92 3.5 38.4 88 1.7 35.1
13:20 1015 29.97 844 24.92 3.7 38.6 87 1.7 35.1
13:25 1015 29.97 844 24.92 3.7 38.7 88 1.9 35.4
13:30 1015 29.97 844 24.92 3.7 38.7 87 1.7 35.1
13:35 1015 29.97 844 24.92 3.9 38.9 86 1.7 35
13:40 1015 29.97 844 24.92 3.7 38.7 83 1.2 34.1
13:45 1015 29.97 844 24.92 3.7 38.6 86 1.5 34.6
13:50 1015 29.97 844 24.92 3.8 38.9 85 1.5 34.7
13:55 1015 29.97 844 24.92 3.9 39.1 84 1.5 34.7
14:00 1015 29.97 844 24.92 4 39.2 85 1.6 34.9
14:05 1015 29.97 844 24.92 4 39.3 83 1.3 34.4
14:10 1015 29.97 844 24.92 3.9 39 83 1.3 34.4
14:15 1015 29.97 844 24.92 4 39.3 83 1.4 34.5
14:20 1015 29.97 844 24.92 4.2 39.6 80 1.1 34
14:25 1015 29.97 844 24.92 4.2 39.6 80 1.1 34.1
14:30 1015 29.97 844 24.92 4.5 40.2 82 1.8 35.2
14:35 1015 29.97 844 24.92 4.9 40.8 79 1.6 34.9
14:40 1015 29.97 844 24.92 5.2 41.4 76 1.3 34.4
14:45 1015 29.97 844 24.92 4.8 40.7 79 1.5 34.7
14:50 1015 29.97 844 24.92 5.2 41.4 77 1.5 34.7
14:55 1015 29.97 844 24.92 5.5 41.8 76 1.5 34.7
15:00 1015 29.97 844 24.92 5.7 42.3 76 1.9 35.4
15:05 1015 29.97 844 24.92 5.8 42.5 75 1.7 35.1
15:10 1015 29.97 844 24.92 5.6 42.1 76 1.6 34.9
15:15 1015 29.97 844 24.92 5.5 41.9 76 1.6 34.9
15:20 1015 29.97 844 24.92 6.1 43 72 1.4 34.5
15:25 1015 29.97 844 24.92 6.3 43.4 74 2.1 35.8
15:30 1015 29.97 844 24.92 6.7 44 73 2.2 36
15:35 1015 29.97 844 24.92 6.9 44.5 72 2.2 35.9
15:40 1015 29.97 844 24.92 6.9 44.4 72 2.2 36
15:45 1015 29.97 844 24.92 6.5 43.8 74 2.2 35.9
15:50 1015 29.97 844 24.92 6.6 43.9 72 2 35.5
15:55 1015 29.97 844 24.92 6.1 43 76 2.2 35.9
16:00 1015 29.97 844 24.92 5.8 42.5 76 1.9 35.5
16:05 1015 29.97 844 24.92 5.9 42.6 76 2 35.5
16:10 1015 29.97 844 24.92 6.4 43.5 70 1.4 34.5
16:15 1015 29.97 844 24.92 7 44.5 69 1.8 35.2
16:20 1015 29.97 844 24.92 6.8 44.2 71 1.8 35.3
16:25 1015 29.97 844 24.92 6.8 44.3 70 1.8 35.3
16:30 1015 29.97 844 24.92 6.8 44.3 72 2.1 35.8
16:35 1015 29.97 844 24.92 6.8 44.2 72 2.2 35.9
16:40 1015 29.97 844 24.92 6.5 43.6 73 2 35.6
16:45 1015 29.97 844 24.92 6.4 43.5 74 2.1 35.8
16:50 1015 29.97 844 24.92 6.8 44.2 70 1.8 35.2
16:55 1015 29.97 844 24.92 6.6 43.8 72 1.8 35.3
17:00 1015 29.97 844 24.92 6.5 43.6 74 2.2 36
17:05 1015 29.97 844 24.92 6 42.8 78 2.5 36.6
17:10 1015 29.97 844 24.92 5.1 41.1 82 2.2 35.9
17:15 1015 29.97 844 24.92 4.7 40.5 82 2 35.6
17:20 1015 29.97 844 24.92 4.7 40.5 82 1.9 35.4
17:25 1015 29.97 844 24.92 4.6 40.3 83 2 35.6
17:30 1015 29.97 844 24.92 4.6 40.3 82 1.8 35.2
17:35 1015 29.97 844 24.92 4.5 40.1 83 1.9 35.4
17:40 1015 29.97 844 24.92 4.4 39.9 83 1.8 35.2
17:45 1015 29.97 844 24.92 4.2 39.6 83 1.7 35
17:50 1015 29.97 844 24.92 4.1 39.3 84 1.6 34.9
17:55 1015 29.97 845 24.95 4.1 39.3 84 1.6 34.8
18:00 1015 29.97 845 24.95 4.1 39.3 84 1.6 34.8
18:05 1015 29.97 845 24.95 4 39.2 85 1.8 35.2
18:10 1015 29.97 845 24.95 3.9 38.9 87 1.9 35.4
18:15 1015 29.97 845 24.95 3.7 38.7 88 1.9 35.4
18:20 1015 29.97 845 24.95 3.7 38.6 88 1.8 35.3
18:25 1015 29.97 845 24.95 3.7 38.6 88 1.9 35.4
18:30 1015 29.97 845 24.95 3.7 38.7 87 1.8 35.2
18:35 1016 30 845 24.95 3.6 38.6 88 1.8 35.3
18:40 1016 30 845 24.95 3.6 38.4 88 1.7 35.1
18:45 1015 29.97 845 24.95 3.6 38.4 88 1.8 35.2
18:50 1016 30 845 24.95 3.6 38.5 87 1.6 34.9
18:55 1016 30 845 24.95 3.7 38.7 86 1.6 34.8
19:00 1016 30 845 24.95 3.9 39 83 1.3 34.4
19:05 1015 29.97 845 24.95 4.1 39.3 84 1.6 34.8
19:10 1015 29.97 845 24.95 4.1 39.4 83 1.4 34.6
19:15 1015 29.97 845 24.95 4.1 39.3 83 1.4 34.5
19:20 1016 30 845 24.95 4 39.3 83 1.4 34.6
19:25 1015 29.97 845 24.95 4 39.2 83 1.4 34.6
19:30 1015 29.97 845 24.95 3.9 39.1 84 1.5 34.7
19:35 1015 29.97 844 24.92 3.8 38.9 86 1.6 34.9
19:40 1015 29.97 845 24.95 3.8 38.8 85 1.5 34.7
19:45 1015 29.97 845 24.95 3.8 38.9 85 1.6 34.8
19:50 1015 29.97 845 24.95 3.8 38.9 85 1.5 34.7
19:55 1016 30 845 24.95 3.8 38.9 85 1.6 34.8
20:00 1015 29.97 845 24.95 3.8 38.9 85 1.6 34.9
20:05 1015 29.97 845 24.95 3.8 38.9 85 1.5 34.7
20:10 1016 30 845 24.95 3.8 38.9 85 1.5 34.7
20:15 1016 30 845 24.95 3.9 39.1 85 1.6 34.9
20:20 1016 30 845 24.95 3.8 38.9 85 1.5 34.8
20:25 1016 30 845 24.95 3.9 39 85 1.5 34.8
20:30 1016 30 845 24.95 4 39.1 84 1.5 34.8
20:35 1016 30 845 24.95 4.1 39.3 84 1.6 34.9
20:40 1016 30 845 24.95 4 39.2 85 1.6 34.9
20:45 1016 30 845 24.95 4.1 39.3 83 1.5 34.7
20:50 1016 30 846 24.98 4.2 39.5 83 1.5 34.7
20:55 1017 30.03 846 24.98 4.2 39.5 82 1.4 34.5
21:00 1017 30.03 846 24.98 4.2 39.5 83 1.5 34.6
21:05 1017 30.03 846 24.98 4.1 39.3 83 1.4 34.5
21:10 1017 30.03 846 24.98 4.1 39.3 82 1.3 34.3
21:15 1017 30.03 846 24.98 4.1 39.4 82 1.3 34.4
21:20 1017 30.03 846 24.98 4.1 39.4 82 1.3 34.4
21:25 1017 30.03 846 24.98 4 39.3 83 1.4 34.5
21:30 1017 30.03 846 24.98 4 39.2 84 1.5 34.7
21:35 1017 30.03 846 24.98 4 39.1 84 1.5 34.7
21:40 1017 30.03 846 24.98 3.9 39 84 1.5 34.7
21:45 1017 30.03 846 24.98 3.8 38.8 86 1.7 35
21:50 1017 30.03 846 24.98 3.7 38.6 87 1.7 35.1
21:55 1017 30.03 847 25.01 3.7 38.6 87 1.7 35.1
22:00 1017 30.03 847 25.01 3.7 38.6 86 1.6 34.9
22:05 1017 30.03 847 25.01 3.7 38.6 86 1.5 34.7
22:10 1017 30.03 847 25.01 3.7 38.7 87 1.7 35.1
22:15 1017 30.03 847 25.01 3.7 38.7 87 1.7 35.1
22:20 1017 30.03 847 25.01 3.7 38.7 88 1.9 35.3
22:25 1017 30.03 847 25.01 3.7 38.6 88 1.8 35.3
22:30 1018 30.06 847 25.01 3.7 38.6 88 1.9 35.5
22:35 1018 30.06 847 25.01 3.7 38.7 88 1.9 35.5
22:40 1017 30.03 847 25.01 3.7 38.7 89 2 35.6
22:45 1018 30.06 847 25.01 3.7 38.7 90 2.1 35.9
22:50 1018 30.06 847 25.01 3.7 38.6 90 2.1 35.8
22:55 1018 30.06 847 25.01 3.7 38.6 90 2.2 35.9
23:00 1018 30.06 847 25.01 3.6 38.5 91 2.3 36.1
23:05 1018 30.06 847 25.01 3.6 38.4 91 2.3 36.1
23:10 1018 30.06 847 25.01 3.5 38.4 91 2.2 36
23:15 1018 30.06 847 25.01 3.5 38.3 92 2.3 36.1
23:20 1018 30.06 847 25.01 3.4 38.2 92 2.3 36.2
23:25 1018 30.06 847 25.01 3.2 37.8 94 2.4 36.3
23:30 1018 30.06 847 25.01 3.1 37.5 95 2.3 36.2
23:35 1018 30.06 847 25.01 3 37.4 95 2.3 36.1
23:40 1018 30.06 847 25.01 2.9 37.2 95 2.2 36
23:45 1018 30.06 847 25.01 2.9 37.2 95 2.1 35.9
23:50 1018 30.06 847 25.01 2.8 37.1 96 2.2 35.9
23:55 1018 30.06 847 25.01 2.8 37.1 95 2.1 35.8
24:00 1018 30.06 847 25.01 2.8 37 95 2.1 35.7